createdAt,value
2022-08-24T00:01:28.072Z,65.76
2022-08-24T00:03:57.644Z,65.74
2022-08-24T00:06:28.081Z,65.96
2022-08-24T00:08:58.135Z,66.79
2022-08-24T00:11:26.580Z,66.90
2022-08-24T00:13:54.290Z,66.62
2022-08-24T00:16:22.234Z,66.33
2022-08-24T00:18:50.440Z,66.42
2022-08-24T00:21:19.055Z,65.94
2022-08-24T00:23:49.769Z,65.96
2022-08-24T00:26:28.489Z,65.89
2022-08-24T00:28:58.655Z,66.46
2022-08-24T00:31:26.445Z,66.42
2022-08-24T00:33:54.687Z,66.08
2022-08-24T00:36:23.122Z,66.48
2022-08-24T00:38:50.634Z,67.21
2022-08-24T00:41:18.219Z,67.03
2022-08-24T00:43:58.375Z,67.42
2022-08-24T00:46:33.026Z,67.11
2022-08-24T00:49:20.388Z,67.29
2022-08-24T00:52:04.571Z,67.36
2022-08-24T00:54:34.090Z,67.61
2022-08-24T00:57:04.957Z,67.43
2022-08-24T00:59:37.341Z,67.52
2022-08-24T01:02:15.429Z,67.59
2022-08-24T01:04:54.122Z,66.96
2022-08-24T01:07:23.731Z,66.87
2022-08-24T01:09:57.289Z,66.79
2022-08-24T01:12:25.372Z,66.75
2022-08-24T01:14:53.803Z,66.90
2022-08-24T01:17:40.902Z,67.49
2022-08-24T01:20:09.401Z,66.82
2022-08-24T01:22:53.491Z,67.21
2022-08-24T01:25:22.607Z,67.29
2022-08-24T01:27:50.645Z,66.90
2022-08-24T01:30:18.723Z,66.80
2022-08-24T01:32:59.657Z,67.39
2022-08-24T01:35:28.179Z,66.99
2022-08-24T01:37:57.539Z,67.18
2022-08-24T01:40:33.662Z,67.47
2022-08-24T01:43:02.511Z,66.74
2022-08-24T01:45:31.131Z,66.62
2022-08-24T01:47:59.726Z,66.44
2022-08-24T01:50:27.430Z,66.82
2022-08-24T01:53:04.904Z,66.76
2022-08-24T01:55:33.614Z,67.11
2022-08-24T01:58:01.460Z,66.58
2022-08-24T02:00:29.837Z,66.51
2022-08-24T02:02:57.646Z,66.64
2022-08-24T02:05:25.158Z,66.71
2022-08-24T02:07:53.166Z,66.89
2022-08-24T02:10:21.696Z,67.14
2022-08-24T02:12:57.853Z,66.44
2022-08-24T02:15:33.251Z,66.70
2022-08-24T02:18:04.537Z,66.50
2022-08-24T02:20:32.416Z,66.39
2022-08-24T02:23:00.198Z,66.52
2022-08-24T02:25:30.555Z,66.57
2022-08-24T02:27:59.874Z,66.23
2022-08-24T02:30:28.640Z,66.38
2022-08-24T02:32:56.617Z,66.17
2022-08-24T02:35:24.789Z,66.58
2022-08-24T02:37:52.539Z,66.53
2022-08-24T02:40:20.381Z,66.59
2022-08-24T02:42:49.014Z,66.84
2022-08-24T02:45:16.508Z,66.88
2022-08-24T02:47:45.163Z,67.16
2022-08-24T02:50:15.698Z,67.53
2022-08-24T02:52:44.491Z,67.17
2022-08-24T02:55:19.965Z,67.26
2022-08-24T02:57:48.375Z,66.77
2022-08-24T03:00:17.680Z,67.04
2022-08-24T03:02:46.276Z,67.88
2022-08-24T03:05:15.547Z,67.65
2022-08-24T03:07:43.526Z,67.69
2022-08-24T03:10:12.237Z,67.71
2022-08-24T03:12:40.023Z,67.58
2022-08-24T03:15:10.519Z,68.20
2022-08-24T03:17:39.968Z,67.54
2022-08-24T03:20:14.173Z,67.96
2022-08-24T03:22:42.661Z,67.91
2022-08-24T03:25:11.613Z,67.63
2022-08-24T03:27:39.533Z,67.77
2022-08-24T03:30:10.287Z,67.36
2022-08-24T03:32:41.160Z,67.42
2022-08-24T03:35:10.108Z,68.32
2022-08-24T03:37:37.640Z,68.09
2022-08-24T03:40:07.960Z,67.81
2022-08-24T03:42:50.463Z,67.79
2022-08-24T03:45:19.306Z,67.57
2022-08-24T03:47:46.744Z,67.88
2022-08-24T03:50:14.835Z,67.85
2022-08-24T03:52:42.516Z,67.44
2022-08-24T03:55:10.440Z,67.41
2022-08-24T03:57:38.112Z,68.08
2022-08-24T04:00:09.860Z,67.70
2022-08-24T04:02:42.176Z,67.17
2022-08-24T04:05:10.731Z,66.87
2022-08-24T04:07:38.755Z,67.10
2022-08-24T04:10:06.677Z,67.57
2022-08-24T04:12:34.616Z,67.28
2022-08-24T04:15:02.423Z,67.08
2022-08-24T04:17:30.922Z,67.61
2022-08-24T04:19:58.852Z,67.29
2022-08-24T04:22:28.716Z,67.40
2022-08-24T04:24:56.745Z,66.92
2022-08-24T04:27:24.482Z,66.96
2022-08-24T04:29:51.933Z,66.86
2022-08-24T04:32:20.082Z,66.88
2022-08-24T04:34:48.148Z,66.55
2022-08-24T04:37:17.626Z,66.58
2022-08-24T04:39:50.430Z,67.50
2022-08-24T04:42:20.083Z,67.55
2022-08-24T04:44:47.559Z,67.24
2022-08-24T04:47:15.569Z,67.02
2022-08-24T04:49:43.041Z,67.11
2022-08-24T04:52:10.559Z,66.94
2022-08-24T04:54:39.019Z,67.23
2022-08-24T04:57:06.704Z,66.85
2022-08-24T04:59:34.324Z,66.72
2022-08-24T05:02:02.246Z,66.46
2022-08-24T05:04:29.680Z,66.58
2022-08-24T05:06:58.882Z,66.82
2022-08-24T05:09:27.417Z,66.92
2022-08-24T05:11:55.670Z,66.50
2022-08-24T05:14:28.031Z,66.55
2022-08-24T05:16:56.478Z,66.41
2022-08-24T05:19:24.331Z,66.11
2022-08-24T05:21:51.804Z,65.99
2022-08-24T05:24:19.668Z,65.93
2022-08-24T05:26:47.169Z,65.72
2022-08-24T05:29:15.160Z,65.13
2022-08-24T05:31:44.729Z,65.99
2022-08-24T05:34:13.574Z,65.11
2022-08-24T05:36:42.502Z,65.14
2022-08-24T05:39:13.326Z,64.89
2022-08-24T05:41:44.245Z,64.53
2022-08-24T05:44:14.249Z,64.04
2022-08-24T05:46:43.175Z,64.24
2022-08-24T05:49:11.347Z,64.12
2022-08-24T05:51:40.145Z,63.57
2022-08-24T05:54:07.733Z,63.36
2022-08-24T05:56:35.615Z,62.88
2022-08-24T05:59:03.763Z,63.06
2022-08-24T06:01:31.717Z,62.62
2022-08-24T06:04:00.130Z,62.50
2022-08-24T06:06:28.668Z,61.55
2022-08-24T06:08:57.755Z,60.96
2022-08-24T06:11:30.761Z,60.59
2022-08-24T06:14:12.168Z,60.06
2022-08-24T06:16:42.934Z,59.76
2022-08-24T06:19:13.139Z,58.99
2022-08-24T06:21:41.128Z,59.14
2022-08-24T06:24:08.605Z,58.76
2022-08-24T06:26:55.301Z,58.01
2022-08-24T06:29:23.024Z,57.83
2022-08-24T06:31:54.696Z,57.36
2022-08-24T06:34:25.930Z,57.47
2022-08-24T06:36:53.727Z,57.19
2022-08-24T06:39:21.713Z,57.49
2022-08-24T06:41:50.268Z,57.10
2022-08-24T06:44:19.907Z,56.73
2022-08-24T06:46:47.803Z,56.58
2022-08-24T06:49:15.701Z,56.16
2022-08-24T06:51:46.348Z,55.65
2022-08-24T06:54:17.062Z,55.72
2022-08-24T06:56:44.479Z,55.32
2022-08-24T06:59:12.633Z,55.28
2022-08-24T07:01:40.383Z,54.95
2022-08-24T07:04:08.456Z,54.79
2022-08-24T07:06:37.287Z,54.77
2022-08-24T07:09:05.344Z,54.35
2022-08-24T07:11:35.003Z,54.63
2022-08-24T07:14:02.716Z,53.72
2022-08-24T07:16:31.208Z,54.29
2022-08-24T07:18:58.964Z,53.23
2022-08-24T07:21:28.251Z,53.72
2022-08-24T07:23:58.248Z,53.26
2022-08-24T07:26:28.103Z,52.46
2022-08-24T07:29:04.872Z,54.05
2022-08-24T07:31:35.520Z,53.40
2022-08-24T07:34:05.598Z,52.20
2022-08-24T07:36:33.725Z,52.86
2022-08-24T07:39:02.436Z,52.02
2022-08-24T07:41:51.432Z,52.26
2022-08-24T07:44:19.148Z,52.34
2022-08-24T07:46:46.992Z,51.29
2022-08-24T07:49:33.294Z,49.14
2022-08-24T07:52:03.267Z,49.99
2022-08-24T07:54:30.803Z,48.93
2022-08-24T07:57:00.251Z,49.31
2022-08-24T07:59:28.423Z,47.89
2022-08-24T08:01:56.607Z,47.67
2022-08-24T08:04:25.981Z,47.69
2022-08-24T08:09:28.323Z,46.68
2022-08-24T08:11:55.863Z,46.46
2022-08-24T08:14:23.580Z,46.83
2022-08-24T08:16:51.375Z,46.56
2022-08-24T08:19:18.976Z,46.28
2022-08-24T08:22:07.397Z,46.38
2022-08-24T08:24:37.575Z,47.33
2022-08-24T08:27:05.969Z,46.79
2022-08-24T08:29:35.185Z,46.24
2022-08-24T08:32:03.169Z,46.35
2022-08-24T08:34:31.467Z,45.94
2022-08-24T08:36:59.835Z,45.94
2022-08-24T08:39:27.908Z,45.93
2022-08-24T08:42:21.305Z,46.09
2022-08-24T08:44:58.125Z,46.28
2022-08-24T08:47:49.689Z,46.52
2022-08-24T08:50:22.007Z,46.46
2022-08-24T08:52:55.803Z,46.58
2022-08-24T08:55:46.017Z,47.05
2022-08-24T08:58:53.793Z,46.41
2022-08-24T09:01:52.384Z,47.11
2022-08-24T09:04:43.866Z,46.71
2022-08-24T09:07:17.342Z,46.54
2022-08-24T09:09:52.265Z,47.00
2022-08-24T09:12:57.824Z,46.97
2022-08-24T09:15:47.189Z,47.32
2022-08-24T09:18:41.390Z,47.51
2022-08-24T09:21:31.134Z,45.24
2022-08-24T09:24:01.522Z,45.58
2022-08-24T09:26:33.051Z,46.04
2022-08-24T09:29:16.435Z,44.54
2022-08-24T09:32:16.343Z,44.49
2022-08-24T09:34:57.505Z,45.10
2022-08-24T09:37:31.832Z,43.51
2022-08-24T09:40:35.381Z,42.91
2022-08-24T09:43:32.772Z,43.00
2022-08-24T09:46:28.996Z,41.77
2022-08-24T09:49:02.386Z,41.81
2022-08-24T09:52:00.976Z,42.48
2022-08-24T09:54:59.244Z,42.33
2022-08-24T09:58:04.689Z,41.56
2022-08-24T10:00:41.936Z,40.83
2022-08-24T10:03:23.904Z,41.14
2022-08-24T10:06:15.977Z,41.37
2022-08-24T10:08:59.838Z,41.47
2022-08-24T10:11:50.508Z,41.37
2022-08-24T10:14:47.385Z,41.20
2022-08-24T10:17:42.959Z,40.17
2022-08-24T10:20:23.428Z,40.23
2022-08-24T10:23:28.452Z,40.10
2022-08-24T10:26:08.371Z,40.96
2022-08-24T10:28:44.832Z,41.60
2022-08-24T10:31:25.416Z,42.11
2022-08-24T10:33:55.577Z,42.85
2022-08-24T10:36:26.049Z,42.37
2022-08-24T10:39:43.804Z,42.09
2022-08-24T10:42:55.160Z,42.29
2022-08-24T10:45:48.140Z,41.95
2022-08-24T10:48:43.860Z,43.35
2022-08-24T10:51:23.072Z,43.66
2022-08-24T10:53:52.859Z,44.11
2022-08-24T10:56:36.565Z,43.58
2022-08-24T10:59:32.146Z,44.02
2022-08-24T11:02:12.421Z,43.82
2022-08-24T11:04:41.586Z,44.46
2022-08-24T11:07:17.724Z,45.43
2022-08-24T11:09:56.185Z,46.05
2022-08-24T11:12:30.352Z,45.00
2022-08-24T11:15:10.827Z,45.46
2022-08-24T11:17:38.376Z,45.75
2022-08-24T11:20:26.606Z,45.56
2022-08-24T11:23:05.193Z,45.61
2022-08-24T11:25:35.771Z,46.47
2022-08-24T11:28:09.544Z,47.76
2022-08-24T11:30:41.744Z,48.17
2022-08-24T11:33:27.455Z,49.57
2022-08-24T11:35:55.160Z,49.09
2022-08-24T11:38:30.591Z,49.20
2022-08-24T11:41:04.044Z,50.37
2022-08-24T11:43:53.303Z,50.39
2022-08-24T11:46:43.115Z,50.55
2022-08-24T11:49:34.433Z,50.87
2022-08-24T11:52:20.036Z,52.00
2022-08-24T11:55:07.835Z,52.94
2022-08-24T11:57:47.411Z,53.18
2022-08-24T12:00:18.724Z,54.10
2022-08-24T12:02:56.468Z,54.91
2022-08-24T12:05:42.550Z,56.21
2022-08-24T12:08:19.429Z,56.29
2022-08-24T12:10:46.656Z,55.72
2022-08-24T12:13:35.379Z,56.42
2022-08-24T12:16:26.003Z,56.81
2022-08-24T12:19:17.700Z,58.00
2022-08-24T12:21:48.532Z,58.05
2022-08-24T12:24:20.360Z,58.13
2022-08-24T12:26:51.227Z,59.55
2022-08-24T12:29:28.648Z,60.52
2022-08-24T12:32:12.195Z,61.58
2022-08-24T12:34:59.108Z,62.31
2022-08-24T12:37:52.072Z,63.21
2022-08-24T12:40:34.259Z,64.42
2022-08-24T12:43:08.546Z,64.52
2022-08-24T12:45:37.843Z,64.50
2022-08-24T12:48:26.623Z,64.68
2022-08-24T12:51:16.195Z,64.71
2022-08-24T12:54:12.238Z,65.00
2022-08-24T12:57:17.514Z,64.84
2022-08-24T12:59:51.869Z,64.98
2022-08-24T13:02:19.428Z,65.17
2022-08-24T13:04:49.725Z,65.50
2022-08-24T13:07:19.752Z,65.65
2022-08-24T13:09:56.211Z,65.86
2022-08-24T13:12:43.418Z,65.81
2022-08-24T13:15:23.325Z,65.74
2022-08-24T13:17:53.475Z,65.55
2022-08-24T13:20:21.252Z,65.88
2022-08-24T13:23:02.873Z,66.02
2022-08-24T13:25:50.573Z,66.16
2022-08-24T13:28:21.425Z,65.65
2022-08-24T13:31:15.432Z,65.81
2022-08-24T13:33:57.495Z,65.66
2022-08-24T13:36:30.947Z,65.68
2022-08-24T13:39:35.846Z,65.93
2022-08-24T13:42:21.717Z,65.75
2022-08-24T13:45:01.191Z,65.63
2022-08-24T13:47:45.337Z,65.68
2022-08-24T13:50:28.823Z,65.38
2022-08-24T13:53:12.419Z,65.62
2022-08-24T13:55:47.888Z,65.34
2022-08-24T13:58:36.762Z,65.26
2022-08-24T14:01:33.940Z,65.37
2022-08-24T14:04:08.107Z,65.68
2022-08-24T14:06:58.863Z,66.22
2022-08-24T14:09:32.655Z,66.30
2022-08-24T14:12:20.331Z,66.15
2022-08-24T14:14:54.081Z,65.52
2022-08-24T14:18:03.743Z,65.96
2022-08-24T14:20:56.588Z,66.25
2022-08-24T14:23:39.528Z,66.29
2022-08-24T14:26:38.805Z,66.43
2022-08-24T14:29:15.334Z,65.76
2022-08-24T14:31:59.957Z,65.29
2022-08-24T14:34:41.961Z,66.12
2022-08-24T14:37:36.099Z,66.30
2022-08-24T14:40:37.222Z,66.20
2022-08-24T14:43:11.288Z,66.02
2022-08-24T14:45:46.225Z,65.78
2022-08-24T14:48:55.526Z,65.92
2022-08-24T14:51:54.760Z,66.21
2022-08-24T14:54:39.846Z,67.10
2022-08-24T14:57:10.083Z,67.17
2022-08-24T15:00:06.180Z,67.06
2022-08-24T15:02:51.555Z,67.53
2022-08-24T15:05:25.003Z,67.21
2022-08-24T15:07:55.569Z,66.90
2022-08-24T15:10:26.422Z,66.67
2022-08-24T15:13:03.538Z,66.49
2022-08-24T15:15:35.565Z,66.62
2022-08-24T15:18:18.104Z,66.46
2022-08-24T15:21:16.742Z,66.34
2022-08-24T15:23:53.072Z,66.21
2022-08-24T15:26:42.056Z,65.98
2022-08-24T15:29:15.178Z,65.83
2022-08-24T15:31:43.715Z,65.97
2022-08-24T15:34:11.393Z,66.16
2022-08-24T15:36:38.784Z,66.46
2022-08-24T15:39:06.694Z,67.02
2022-08-24T15:41:38.980Z,66.50
2022-08-24T15:44:23.452Z,65.96
2022-08-24T15:46:55.186Z,65.92
2022-08-24T15:49:34.775Z,65.87
2022-08-24T15:52:08.704Z,65.30
2022-08-24T15:54:46.290Z,65.31
2022-08-24T15:57:43.608Z,65.45
2022-08-24T16:00:44.455Z,65.61
2022-08-24T16:03:45.045Z,65.57
2022-08-24T16:06:31.443Z,65.53
2022-08-24T16:09:20.752Z,65.39
2022-08-24T16:11:56.741Z,65.75
2022-08-24T16:14:30.248Z,65.98
2022-08-24T16:16:58.386Z,66.15
2022-08-24T16:19:31.156Z,66.06
2022-08-24T16:22:07.960Z,65.94
2022-08-24T16:24:38.378Z,66.29
2022-08-24T16:27:10.683Z,66.52
2022-08-24T16:29:38.164Z,66.30
2022-08-24T16:32:22.078Z,66.49
2022-08-24T16:35:08.617Z,66.71
2022-08-24T16:37:36.198Z,66.63
2022-08-24T16:40:05.202Z,66.88
2022-08-24T16:42:32.911Z,66.80
2022-08-24T16:45:00.623Z,66.86
2022-08-24T16:47:29.043Z,66.44
2022-08-24T16:49:56.741Z,66.37
2022-08-24T16:52:24.367Z,65.99
2022-08-24T16:54:51.991Z,65.78
2022-08-24T16:57:24.446Z,64.74
2022-08-24T16:59:52.727Z,64.98
2022-08-24T17:02:22.247Z,64.99
2022-08-24T17:04:50.040Z,65.13
2022-08-24T17:07:23.998Z,64.80
2022-08-24T17:09:51.580Z,64.69
2022-08-24T17:12:19.208Z,65.01
2022-08-24T17:14:46.547Z,64.55
2022-08-24T17:17:17.125Z,64.72
2022-08-24T17:19:47.332Z,64.68
2022-08-24T17:22:16.535Z,64.58
2022-08-24T17:24:45.087Z,64.82
2022-08-24T17:27:13.067Z,64.60
2022-08-24T17:29:42.039Z,64.47
2022-08-24T17:32:09.438Z,64.82
2022-08-24T17:34:37.485Z,64.80
2022-08-24T17:37:05.171Z,64.91
2022-08-24T17:39:32.709Z,65.11
2022-08-24T17:42:00.473Z,65.26
2022-08-24T17:44:32.032Z,65.53
2022-08-24T17:47:03.653Z,65.82
2022-08-24T17:49:32.612Z,65.97
2022-08-24T17:52:00.485Z,65.96
2022-08-24T17:54:28.351Z,65.88
2022-08-24T17:56:56.176Z,66.18
2022-08-24T17:59:31.689Z,66.49
2022-08-24T18:02:01.816Z,66.64
2022-08-24T18:04:30.977Z,66.63
2022-08-24T18:07:03.015Z,66.50
2022-08-24T18:09:37.173Z,66.65
2022-08-24T18:12:06.818Z,66.67
2022-08-24T18:14:35.182Z,66.52
2022-08-24T18:17:05.490Z,66.59
2022-08-24T18:19:33.410Z,66.69
2022-08-24T18:22:01.942Z,66.73
2022-08-24T18:24:32.813Z,66.95
2022-08-24T18:27:10.131Z,66.64
2022-08-24T18:29:42.575Z,66.93
2022-08-24T18:32:11.761Z,67.11
2022-08-24T18:34:40.030Z,67.12
2022-08-24T18:37:07.694Z,67.22
2022-08-24T18:39:35.461Z,67.35
2022-08-24T18:42:05.342Z,66.99
2022-08-24T18:44:32.732Z,66.98
2022-08-24T18:47:00.072Z,67.01
2022-08-24T18:49:28.076Z,66.93
2022-08-24T18:51:55.692Z,67.20
2022-08-24T18:54:31.836Z,67.34
2022-08-24T18:56:59.497Z,67.13
2022-08-24T18:59:26.876Z,67.16
2022-08-24T19:02:12.956Z,67.11
2022-08-24T19:04:45.204Z,67.23
2022-08-24T19:07:13.517Z,66.96
2022-08-24T19:09:41.271Z,67.14
2022-08-24T19:12:08.956Z,66.99
2022-08-24T19:14:37.119Z,67.45
2022-08-24T19:17:06.440Z,67.03
2022-08-24T19:19:34.044Z,67.02
2022-08-24T19:22:02.503Z,67.01
2022-08-24T19:24:30.905Z,66.67
2022-08-24T19:27:01.923Z,66.61
2022-08-24T19:29:54.070Z,66.43
2022-08-24T19:32:24.070Z,66.73
2022-08-24T19:34:52.593Z,66.43
2022-08-24T19:37:21.352Z,66.47
2022-08-24T19:39:51.068Z,66.65
2022-08-24T19:42:19.516Z,66.68
2022-08-24T19:45:05.527Z,66.37
2022-08-24T19:47:34.537Z,66.52
2022-08-24T19:50:03.716Z,66.84
2022-08-24T19:52:32.161Z,66.61
2022-08-24T19:54:59.859Z,66.57
2022-08-24T19:57:36.908Z,66.56
2022-08-24T20:00:29.370Z,66.17
2022-08-24T20:02:57.463Z,66.21
2022-08-24T20:05:26.616Z,66.23
2022-08-24T20:07:54.286Z,66.38
2022-08-24T20:10:22.936Z,66.21
2022-08-24T20:12:50.716Z,66.51
2022-08-24T20:15:18.883Z,66.35
2022-08-24T20:17:47.016Z,66.36
2022-08-24T20:20:16.892Z,66.57
2022-08-24T20:22:44.382Z,66.58
2022-08-24T20:25:12.461Z,66.56
2022-08-24T20:27:39.825Z,66.41
2022-08-24T20:30:08.316Z,66.36
2022-08-24T20:32:36.054Z,66.15
2022-08-24T20:35:04.204Z,66.18
2022-08-24T20:37:32.652Z,65.90
2022-08-24T20:40:00.782Z,66.38
2022-08-24T20:42:29.402Z,66.17
2022-08-24T20:44:56.723Z,66.02
2022-08-24T20:47:24.319Z,66.24
2022-08-24T20:49:51.642Z,66.19
2022-08-24T20:52:19.118Z,66.16
2022-08-24T20:54:46.691Z,66.28
2022-08-24T20:57:18.157Z,66.07
2022-08-24T20:59:45.829Z,66.35
2022-08-24T21:02:13.730Z,66.30
2022-08-24T21:04:41.120Z,66.17
2022-08-24T21:07:10.511Z,66.66
2022-08-24T21:09:38.683Z,66.58
2022-08-24T21:12:06.875Z,66.18
2022-08-24T21:14:34.509Z,66.36
2022-08-24T21:17:04.633Z,66.10
2022-08-24T21:19:32.779Z,66.23
2022-08-24T21:22:00.211Z,66.02
2022-08-24T21:24:27.804Z,65.90
2022-08-24T21:26:55.260Z,66.25
2022-08-24T21:29:22.628Z,66.23
2022-08-24T21:32:08.683Z,66.17
2022-08-24T21:34:42.200Z,65.91
2022-08-24T21:37:12.903Z,66.17
2022-08-24T21:39:40.311Z,66.13
2022-08-24T21:42:09.405Z,66.16
2022-08-24T21:44:37.252Z,66.42
2022-08-24T21:47:06.778Z,66.08
2022-08-24T21:49:34.228Z,66.07
2022-08-24T21:52:01.892Z,66.05
2022-08-24T21:54:29.213Z,66.25
2022-08-24T21:56:56.536Z,66.48
2022-08-24T21:59:24.131Z,66.21
2022-08-24T22:01:51.527Z,66.16
2022-08-24T22:04:19.646Z,66.12
2022-08-24T22:06:46.999Z,66.20
2022-08-24T22:09:14.367Z,66.15
2022-08-24T22:11:42.817Z,65.89
2022-08-24T22:14:10.163Z,66.08
2022-08-24T22:16:37.752Z,66.13
2022-08-24T22:19:05.730Z,65.96
2022-08-24T22:21:34.797Z,66.08
2022-08-24T22:24:04.121Z,66.14
2022-08-24T22:26:32.141Z,66.22
2022-08-24T22:29:00.825Z,65.96
2022-08-24T22:31:33.934Z,66.09
2022-08-24T22:34:06.076Z,66.02
2022-08-24T22:36:33.899Z,65.89
2022-08-24T22:39:01.485Z,66.30
2022-08-24T22:41:29.335Z,66.32
2022-08-24T22:44:16.203Z,66.18
2022-08-24T22:46:44.134Z,66.19
2022-08-24T22:49:11.985Z,66.38
2022-08-24T22:51:40.235Z,66.34
2022-08-24T22:54:08.266Z,66.29
2022-08-24T22:56:39.139Z,66.37
2022-08-24T22:59:07.698Z,66.13
2022-08-24T23:01:38.417Z,66.24
2022-08-24T23:04:08.775Z,66.47
2022-08-24T23:06:36.499Z,66.18
2022-08-24T23:09:05.246Z,66.17
2022-08-24T23:11:33.104Z,66.09
2022-08-24T23:14:05.218Z,65.92
2022-08-24T23:16:34.623Z,66.17
2022-08-24T23:19:20.963Z,66.06
2022-08-24T23:21:48.776Z,65.75
2022-08-24T23:24:16.836Z,65.83
2022-08-24T23:26:44.507Z,66.00
2022-08-24T23:29:13.793Z,65.88
2022-08-24T23:31:42.075Z,65.90
2022-08-24T23:34:10.295Z,66.09
2022-08-24T23:36:38.338Z,66.18
2022-08-24T23:39:07.523Z,65.93
2022-08-24T23:41:38.251Z,65.94
2022-08-24T23:44:11.172Z,65.76
2022-08-24T23:46:39.654Z,65.83
2022-08-24T23:49:07.936Z,65.87
2022-08-24T23:51:36.386Z,66.06
2022-08-24T23:54:05.902Z,65.90
2022-08-24T23:56:36.764Z,65.92
2022-08-24T23:59:07.987Z,65.89
